MDSDSEGU

Guest
Details From MDSD - Las Americas Intl
To SEGU - Guayauqiil - Simon Bolivar Intl
Flight Number -
Tags decoded
Created
Modified
Stats Distance 1,417 nm / 2,624 km
Max Altitude 0 ft / 0 m
Waypoints 7
Social Downloads 0
Likes 0
Share VATSIM

Download

Looking for another format? Having issues loading an existing format? Contact us
Advertisement - Login to hide

Notes

Requested: MDSD GABRA BEROX BUV GIR BOKAN SEGU

Route

MDSD GABRA BEROX BUV GIR BOKAN SEGU

ID Type Via Altitude Latitude Longitude Leg Dist Tot Dist Heading (true) Name
O MDSD APT - 0 ft / 0 m 18.42966˚ -69.66893˚ - 0 nm - Las Americas Intl
GABRA FIX - 0 ft / 0 m 17.85417˚ -70.29944˚ 49 nm 49 nm 226° / 226° -
BEROX FIX - 0 ft / 0 m 16.00000˚ -70.06667˚ 112 nm 162 nm 173° / 173° -
BUV VOR - 0 ft / 0 m 5.53222˚ -73.85861˚ 667 nm 829 nm 200° / 199° BUVIS VOR-DME
GIR VOR - 0 ft / 0 m 4.19167˚ -74.86583˚ 100 nm 929 nm 217° / 217° GIRARDOT VOR-DME
BOKAN FIX - 0 ft / 0 m 0.80833˚ -77.88167˚ 272 nm 1201 nm 222° / 222° -
O SEGU APT - 0 ft / 0 m -2.15742˚ -79.88356˚ 214 nm 1416 nm 214° / 214° Guayauqiil - Simon Bolivar Intl

Altitude Profile

Advertisement - Login to hide

Weather


0- 5 10 15 20 25 30 35+ Temperature / ° C

Clouds and Precipitation
Forecast for 2017-12-13 06:00 UTC. Updated an hour ago

Ground ~20,000 ft ~40,000 ft Winds

MDSD

Details ICAO MDSD (SDQ)
Name Las Americas Intl
Region Dominican Republic
Timezone America/Santo_Domingo (UTC-4.0)
Stats Elevation 59 ft / 18 m (AMSL)
Location 18.429662° -69.668925°
Runways 1
Magnetic Variation 11.536° W

METAR

MDSD 130400Z 24004KT 9999 SCT018 26/23 Q1013

Decode

TAF

Not found

Departure Runways

ID Width Length Bearing (true) Bearing (mag) Surface Threshold Offset Overrun Length
17 200 ft / 61 m 11,051 ft / 3,368 m 160.78° 172.32° Asphalt 0 ft / 0 m 0 ft / 0 m
35 200 ft / 61 m 11,051 ft / 3,368 m 340.79° 352.33° Asphalt 0 ft / 0 m 0 ft / 0 m

SEGU

Details ICAO SEGU (GYE)
Name Guayauqiil - Simon Bolivar Intl
Region Equador
Timezone America/Guayaquil (UTC-5.0)
Stats Elevation 19 ft / 6 m (AMSL)
Location -2.157419° -79.883559°
Runways 1
Magnetic Variation 2.150° W

METAR

SEGU 130400Z 22011KT 9999 BKN030 BKN100 25/20 Q1012 NOSIG RMK A2990

Decode

TAF

Not found

Destination Runways

ID Width Length Bearing (true) Bearing (mag) Surface Threshold Offset Overrun Length
03 151 ft / 46 m 9,184 ft / 2,799 m 30.43° 32.58° Asphalt 338 ft / 103 m 280 ft / 85 m
21 151 ft / 46 m 9,184 ft / 2,799 m 210.43° 212.58° Asphalt 810 ft / 247 m 230 ft / 70 m

Approach Navaids

Runway Type Ident Frequency Range Bearing (true) Bearing (mag) Slope Elevation
21 Localiser ILG 110.30 MHz 18 nm / 33 km 210.13° 212.28° - 17 ft / 5 m (AMSL)
21 Glidescope ILG 110.30 MHz 10 nm / 19 km 210.43° 212.58° 3.00° 17 ft / 5 m (AMSL)
21 DME ILG 110.30 MHz 18 nm / 33 km - - - 19 ft / 6 m (AMSL)

Popular Alternatives